sensor_id;sensor_type;location;lat;lon;timestamp;pressure;altitude;pressure_sealevel;temperature;humidity
70968;BME280;58629;48.808;8.820;2024-01-11T00:02:11;98002.66;;;-6.11;100.00
70968;BME280;58629;48.808;8.820;2024-01-11T00:04:36;98002.44;;;-6.14;100.00
70968;BME280;58629;48.808;8.820;2024-01-11T00:07:03;97997.00;;;-6.13;100.00
70968;BME280;58629;48.808;8.820;2024-01-11T00:09:28;97993.94;;;-6.15;100.00
70968;BME280;58629;48.808;8.820;2024-01-11T00:11:54;97991.94;;;-6.18;100.00
70968;BME280;58629;48.808;8.820;2024-01-11T00:14:19;98000.97;;;-6.21;100.00
70968;BME280;58629;48.808;8.820;2024-01-11T00:16:44;98001.75;;;-6.20;100.00
70968;BME280;58629;48.808;8.820;2024-01-11T00:19:10;98007.44;;;-6.23;100.00
70968;BME280;58629;48.808;8.820;2024-01-11T00:21:35;97996.44;;;-6.29;100.00
70968;BME280;58629;48.808;8.820;2024-01-11T00:24:00;98001.59;;;-6.29;100.00
70968;BME280;58629;48.808;8.820;2024-01-11T00:26:26;98002.84;;;-6.26;100.00
70968;BME280;58629;48.808;8.820;2024-01-11T00:28:51;98008.53;;;-6.29;100.00
70968;BME280;58629;48.808;8.820;2024-01-11T00:31:16;98008.88;;;-6.36;100.00
70968;BME280;58629;48.808;8.820;2024-01-11T00:33:42;98006.56;;;-6.37;100.00
70968;BME280;58629;48.808;8.820;2024-01-11T00:36:07;98013.53;;;-6.38;100.00
70968;BME280;58629;48.808;8.820;2024-01-11T00:38:32;98008.72;;;-6.44;100.00
70968;BME280;58629;48.808;8.820;2024-01-11T00:40:58;98005.09;;;-6.43;100.00
70968;BME280;58629;48.808;8.820;2024-01-11T00:43:23;98003.28;;;-6.43;100.00
70968;BME280;58629;48.808;8.820;2024-01-11T00:45:48;98003.56;;;-6.44;100.00
70968;BME280;58629;48.808;8.820;2024-01-11T00:48:14;98009.75;;;-6.45;100.00
70968;BME280;58629;48.808;8.820;2024-01-11T00:50:39;98012.63;;;-6.47;100.00
70968;BME280;58629;48.808;8.820;2024-01-11T00:53:04;98013.94;;;-6.49;100.00
70968;BME280;58629;48.808;8.820;2024-01-11T00:55:30;98018.34;;;-6.50;100.00
70968;BME280;58629;48.808;8.820;2024-01-11T00:57:55;98021.16;;;-6.51;100.00
70968;BME280;58629;48.808;8.820;2024-01-11T01:00:20;98015.59;;;-6.58;100.00
70968;BME280;58629;48.808;8.820;2024-01-11T01:02:46;98016.59;;;-6.59;100.00
70968;BME280;58629;48.808;8.820;2024-01-11T01:05:11;98008.34;;;-6.56;100.00
70968;BME280;58629;48.808;8.820;2024-01-11T01:07:37;98016.06;;;-6.56;100.00
70968;BME280;58629;48.808;8.820;2024-01-11T01:10:02;98015.78;;;-6.55;100.00
70968;BME280;58629;48.808;8.820;2024-01-11T01:12:28;98023.53;;;-6.55;100.00
70968;BME280;58629;48.808;8.820;2024-01-11T01:14:54;98021.16;;;-6.51;100.00
70968;BME280;58629;48.808;8.820;2024-01-11T01:17:21;98021.44;;;-6.53;100.00
70968;BME280;58629;48.808;8.820;2024-01-11T01:19:47;98020.16;;;-6.55;100.00
70968;BME280;58629;48.808;8.820;2024-01-11T01:22:12;98024.78;;;-6.52;100.00
70968;BME280;58629;48.808;8.820;2024-01-11T01:24:37;98021.66;;;-6.49;100.00
70968;BME280;58629;48.808;8.820;2024-01-11T01:27:03;98021.72;;;-6.54;100.00
70968;BME280;58629;48.808;8.820;2024-01-11T01:29:28;98023.25;;;-6.53;100.00
70968;BME280;58629;48.808;8.820;2024-01-11T01:31:54;98015.78;;;-6.55;100.00
70968;BME280;58629;48.808;8.820;2024-01-11T01:34:19;98014.81;;;-6.59;99.94
70968;BME280;58629;48.808;8.820;2024-01-11T01:36:45;98024.13;;;-6.63;100.00
70968;BME280;58629;48.808;8.820;2024-01-11T01:39:10;98022.34;;;-6.67;100.00
70968;BME280;58629;48.808;8.820;2024-01-11T01:41:36;98017.00;;;-6.71;100.00
70968;BME280;58629;48.808;8.820;2024-01-11T01:44:01;98031.13;;;-6.68;100.00
70968;BME280;58629;48.808;8.820;2024-01-11T01:46:27;98036.28;;;-6.68;100.00
70968;BME280;58629;48.808;8.820;2024-01-11T01:48:53;98036.00;;;-6.67;100.00
70968;BME280;58629;48.808;8.820;2024-01-11T01:51:20;98036.22;;;-6.63;100.00
70968;BME280;58629;48.808;8.820;2024-01-11T01:53:45;98042.66;;;-6.61;99.71
70968;BME280;58629;48.808;8.820;2024-01-11T01:56:12;98042.84;;;-6.57;99.82
70968;BME280;58629;48.808;8.820;2024-01-11T01:58:38;98046.44;;;-6.53;100.00
70968;BME280;58629;48.808;8.820;2024-01-11T02:01:03;98046.91;;;-6.51;100.00
70968;BME280;58629;48.808;8.820;2024-01-11T02:03:29;98051.84;;;-6.55;100.00
70968;BME280;58629;48.808;8.820;2024-01-11T02:05:55;98052.13;;;-6.56;99.91
70968;BME280;58629;48.808;8.820;2024-01-11T02:08:22;98051.91;;;-6.60;100.00
70968;BME280;58629;48.808;8.820;2024-01-11T02:10:48;98046.28;;;-6.62;100.00
70968;BME280;58629;48.808;8.820;2024-01-11T02:13:13;98044.22;;;-6.65;99.78
70968;BME280;58629;48.808;8.820;2024-01-11T02:15:39;98045.38;;;-6.76;98.82
70968;BME280;58629;48.808;8.820;2024-01-11T02:18:04;98045.50;;;-6.91;100.00
70968;BME280;58629;48.808;8.820;2024-01-11T02:20:31;98039.53;;;-6.86;100.00
70968;BME280;58629;48.808;8.820;2024-01-11T02:23:03;98045.50;;;-6.91;100.00
70968;BME280;58629;48.808;8.820;2024-01-11T02:25:29;98050.22;;;-7.03;100.00
70968;BME280;58629;48.808;8.820;2024-01-11T02:27:55;98053.78;;;-6.94;100.00
70968;BME280;58629;48.808;8.820;2024-01-11T02:30:20;98051.91;;;-6.88;100.00
70968;BME280;58629;48.808;8.820;2024-01-11T02:32:46;98049.91;;;-6.91;100.00
70968;BME280;58629;48.808;8.820;2024-01-11T02:35:14;98055.56;;;-6.89;100.00
70968;BME280;58629;48.808;8.820;2024-01-11T02:37:40;98058.38;;;-6.91;100.00
70968;BME280;58629;48.808;8.820;2024-01-11T02:40:08;98056.28;;;-6.84;100.00
70968;BME280;58629;48.808;8.820;2024-01-11T02:42:34;98055.00;;;-6.86;100.00
70968;BME280;58629;48.808;8.820;2024-01-11T02:45:00;98051.66;;;-6.87;99.65
70968;BME280;58629;48.808;8.820;2024-01-11T02:47:26;98050.66;;;-6.91;99.64
70968;BME280;58629;48.808;8.820;2024-01-11T02:49:51;98057.88;;;-6.93;100.00
70968;BME280;58629;48.808;8.820;2024-01-11T02:52:17;98060.22;;;-6.96;99.55
70968;BME280;58629;48.808;8.820;2024-01-11T02:54:42;98048.13;;;-6.96;100.00
70968;BME280;58629;48.808;8.820;2024-01-11T02:57:07;98052.22;;;-6.95;100.00
70968;BME280;58629;48.808;8.820;2024-01-11T02:59:33;98055.13;;;-7.01;99.70
70968;BME280;58629;48.808;8.820;2024-01-11T03:01:58;98047.22;;;-7.10;100.00
70968;BME280;58629;48.808;8.820;2024-01-11T03:04:23;98050.34;;;-7.13;99.90
70968;BME280;58629;48.808;8.820;2024-01-11T03:06:49;98046.78;;;-7.17;100.00
70968;BME280;58629;48.808;8.820;2024-01-11T03:09:14;98042.63;;;-7.13;100.00
70968;BME280;58629;48.808;8.820;2024-01-11T03:11:39;98035.00;;;-7.28;99.88
70968;BME280;58629;48.808;8.820;2024-01-11T03:14:06;98033.06;;;-7.41;100.00
70968;BME280;58629;48.808;8.820;2024-01-11T03:16:31;98029.72;;;-7.42;100.00
70968;BME280;58629;48.808;8.820;2024-01-11T03:18:56;98028.94;;;-7.42;100.00
70968;BME280;58629;48.808;8.820;2024-01-11T03:21:22;98020.19;;;-7.41;100.00
70968;BME280;58629;48.808;8.820;2024-01-11T03:23:47;98023.03;;;-7.43;100.00
70968;BME280;58629;48.808;8.820;2024-01-11T03:26:17;98022.53;;;-7.45;100.00
70968;BME280;58629;48.808;8.820;2024-01-11T03:28:42;98024.00;;;-7.34;100.00
70968;BME280;58629;48.808;8.820;2024-01-11T03:31:09;98030.13;;;-7.30;100.00
70968;BME280;58629;48.808;8.820;2024-01-11T03:33:34;98034.47;;;-7.25;100.00
70968;BME280;58629;48.808;8.820;2024-01-11T03:36:06;98029.06;;;-7.24;100.00
70968;BME280;58629;48.808;8.820;2024-01-11T03:38:31;98027.75;;;-7.21;100.00
70968;BME280;58629;48.808;8.820;2024-01-11T03:40:57;98023.63;;;-7.17;100.00
70968;BME280;58629;48.808;8.820;2024-01-11T03:43:22;98032.06;;;-7.17;100.00
70968;BME280;58629;48.808;8.820;2024-01-11T03:45:47;98023.91;;;-7.24;99.48
70968;BME280;58629;48.808;8.820;2024-01-11T03:48:12;98030.56;;;-7.23;100.00
70968;BME280;58629;48.808;8.820;2024-01-11T03:50:38;98034.50;;;-7.30;100.00
70968;BME280;58629;48.808;8.820;2024-01-11T03:53:03;98031.66;;;-7.29;100.00
70968;BME280;58629;48.808;8.820;2024-01-11T03:55:29;98029.94;;;-7.38;99.71
70968;BME280;58629;48.808;8.820;2024-01-11T03:57:54;98030.72;;;-7.38;100.00
70968;BME280;58629;48.808;8.820;2024-01-11T04:00:20;98027.59;;;-7.35;100.00
70968;BME280;58629;48.808;8.820;2024-01-11T04:02:45;98019.63;;;-7.33;100.00
70968;BME280;58629;48.808;8.820;2024-01-11T04:05:11;98026.28;;;-7.32;100.00
70968;BME280;58629;48.808;8.820;2024-01-11T04:07:36;98025.78;;;-7.34;99.61
70968;BME280;58629;48.808;8.820;2024-01-11T04:10:02;98027.59;;;-7.35;100.00
70968;BME280;58629;48.808;8.820;2024-01-11T04:12:27;98026.56;;;-7.34;100.00
70968;BME280;58629;48.808;8.820;2024-01-11T04:14:52;98019.13;;;-7.35;99.46
70968;BME280;58629;48.808;8.820;2024-01-11T04:17:18;98019.63;;;-7.33;99.85
70968;BME280;58629;48.808;8.820;2024-01-11T04:19:43;98016.78;;;-7.37;99.24
70968;BME280;58629;48.808;8.820;2024-01-11T04:22:08;98023.75;;;-7.37;99.31
70968;BME280;58629;48.808;8.820;2024-01-11T04:24:34;98021.44;;;-7.39;99.57
70968;BME280;58629;48.808;8.820;2024-01-11T04:26:59;98026.06;;;-7.36;100.00
70968;BME280;58629;48.808;8.820;2024-01-11T04:29:25;98021.69;;;-7.35;100.00
70968;BME280;58629;48.808;8.820;2024-01-11T04:31:50;98015.00;;;-7.36;99.73
70968;BME280;58629;48.808;8.820;2024-01-11T04:34:15;98022.22;;;-7.38;99.94
70968;BME280;58629;48.808;8.820;2024-01-11T04:36:41;98015.00;;;-7.36;99.84
70968;BME280;58629;48.808;8.820;2024-01-11T04:39:06;98018.56;;;-7.32;98.91
70968;BME280;58629;48.808;8.820;2024-01-11T04:41:35;98016.53;;;-7.35;99.68
70968;BME280;58629;48.808;8.820;2024-01-11T04:44:00;98014.22;;;-7.37;99.50
70968;BME280;58629;48.808;8.820;2024-01-11T04:46:25;98024.28;;;-7.40;98.79
70968;BME280;58629;48.808;8.820;2024-01-11T04:48:51;98021.19;;;-7.37;98.62
70968;BME280;58629;48.808;8.820;2024-01-11T04:51:17;98024.78;;;-7.38;99.12
70968;BME280;58629;48.808;8.820;2024-01-11T04:53:43;98023.75;;;-7.37;98.70
70968;BME280;58629;48.808;8.820;2024-01-11T04:56:12;98028.91;;;-7.37;98.59
70968;BME280;58629;48.808;8.820;2024-01-11T04:58:42;98018.34;;;-7.36;98.30
70968;BME280;58629;48.808;8.820;2024-01-11T05:01:12;98019.88;;;-7.35;98.27
70968;BME280;58629;48.808;8.820;2024-01-11T05:03:38;98024.75;;;-7.33;98.08
70968;BME280;58629;48.808;8.820;2024-01-11T05:06:03;98027.63;;;-7.40;98.56
70968;BME280;58629;48.808;8.820;2024-01-11T05:08:29;98026.13;;;-7.41;98.60
70968;BME280;58629;48.808;8.820;2024-01-11T05:10:54;98027.69;;;-7.45;98.57
70968;BME280;58629;48.808;8.820;2024-01-11T05:13:20;98024.84;;;-7.43;99.59
70968;BME280;58629;48.808;8.820;2024-01-11T05:15:45;98033.06;;;-7.46;98.46
70968;BME280;58629;48.808;8.820;2024-01-11T05:18:11;98032.81;;;-7.45;98.19
70968;BME280;58629;48.808;8.820;2024-01-11T05:20:37;98028.19;;;-7.48;98.08
70968;BME280;58629;48.808;8.820;2024-01-11T05:23:03;98025.91;;;-7.49;98.85
70968;BME280;58629;48.808;8.820;2024-01-11T05:25:29;98032.34;;;-7.52;97.41
70968;BME280;58629;48.808;8.820;2024-01-11T05:27:57;98040.28;;;-7.48;97.99
70968;BME280;58629;48.808;8.820;2024-01-11T05:30:23;98043.19;;;-7.55;97.37
70968;BME280;58629;48.808;8.820;2024-01-11T05:32:48;98048.06;;;-7.53;98.32
70968;BME280;58629;48.808;8.820;2024-01-11T05:35:14;98046.75;;;-7.51;97.77
70968;BME280;58629;48.808;8.820;2024-01-11T05:37:39;98042.91;;;-7.53;98.13
70968;BME280;58629;48.808;8.820;2024-01-11T05:40:05;98044.97;;;-7.55;97.96
70968;BME280;58629;48.808;8.820;2024-01-11T05:42:30;98049.84;;;-7.54;97.51
70968;BME280;58629;48.808;8.820;2024-01-11T05:44:55;98049.06;;;-7.54;99.02
70968;BME280;58629;48.808;8.820;2024-01-11T05:47:21;98048.81;;;-7.53;97.92
70968;BME280;58629;48.808;8.820;2024-01-11T05:49:46;98056.78;;;-7.54;99.07
70968;BME280;58629;48.808;8.820;2024-01-11T05:52:13;98057.56;;;-7.54;98.63
70968;BME280;58629;48.808;8.820;2024-01-11T05:54:38;98046.44;;;-7.44;100.00
70968;BME280;58629;48.808;8.820;2024-01-11T05:57:03;98053.25;;;-6.67;100.00
70968;BME280;58629;48.808;8.820;2024-01-11T05:59:29;98055.78;;;-5.91;100.00
70968;BME280;58629;48.808;8.820;2024-01-11T06:01:54;98055.75;;;-5.17;100.00
70968;BME280;58629;48.808;8.820;2024-01-11T06:04:24;98060.09;;;-4.53;100.00
70968;BME280;58629;48.808;8.820;2024-01-11T06:06:50;98058.47;;;-3.95;100.00
70968;BME280;58629;48.808;8.820;2024-01-11T06:09:15;98062.41;;;-3.48;100.00
70968;BME280;58629;48.808;8.820;2024-01-11T06:11:40;98059.59;;;-3.16;100.00
70968;BME280;58629;48.808;8.820;2024-01-11T06:14:06;98067.56;;;-3.48;100.00
70968;BME280;58629;48.808;8.820;2024-01-11T06:16:31;98065.66;;;-4.05;96.00
70968;BME280;58629;48.808;8.820;2024-01-11T06:18:56;98067.19;;;-4.31;94.69
70968;BME280;58629;48.808;8.820;2024-01-11T06:21:22;98066.50;;;-4.96;88.56
70968;BME280;58629;48.808;8.820;2024-01-11T06:23:47;98061.97;;;-5.37;88.15
70968;BME280;58629;48.808;8.820;2024-01-11T06:26:14;98068.94;;;-5.74;88.12
70968;BME280;58629;48.808;8.820;2024-01-11T06:28:39;98066.50;;;-6.50;87.10
70968;BME280;58629;48.808;8.820;2024-01-11T06:31:05;98060.28;;;-6.73;91.88
70968;BME280;58629;48.808;8.820;2024-01-11T06:33:31;98062.41;;;-6.80;93.41
70968;BME280;58629;48.808;8.820;2024-01-11T06:35:58;98074.38;;;-6.94;94.26
70968;BME280;58629;48.808;8.820;2024-01-11T06:38:23;98074.94;;;-7.02;93.52
70968;BME280;58629;48.808;8.820;2024-01-11T06:40:48;98071.94;;;-7.09;94.58
70968;BME280;58629;48.808;8.820;2024-01-11T06:43:14;98083.53;;;-7.12;95.68
70968;BME280;58629;48.808;8.820;2024-01-11T06:45:42;98076.09;;;-7.13;95.39
70968;BME280;58629;48.808;8.820;2024-01-11T06:48:07;98081.47;;;-7.15;96.34
70968;BME280;58629;48.808;8.820;2024-01-11T06:50:33;98079.97;;;-7.21;95.41
70968;BME280;58629;48.808;8.820;2024-01-11T06:52:59;98090.59;;;-7.27;94.59
70968;BME280;58629;48.808;8.820;2024-01-11T06:55:25;98090.09;;;-7.34;95.22
70968;BME280;58629;48.808;8.820;2024-01-11T06:57:50;98092.94;;;-7.36;95.73
70968;BME280;58629;48.808;8.820;2024-01-11T07:00:15;98093.25;;;-7.42;96.14
70968;BME280;58629;48.808;8.820;2024-01-11T07:02:41;98094.84;;;-7.51;96.43
70968;BME280;58629;48.808;8.820;2024-01-11T07:05:06;98096.38;;;-7.50;98.29
70968;BME280;58629;48.808;8.820;2024-01-11T07:07:33;98094.56;;;-7.45;98.73
70968;BME280;58629;48.808;8.820;2024-01-11T07:09:58;98106.47;;;-7.59;97.46
70968;BME280;58629;48.808;8.820;2024-01-11T07:12:24;98104.00;;;-7.79;97.53
70968;BME280;58629;48.808;8.820;2024-01-11T07:14:50;98113.53;;;-7.89;99.19
70968;BME280;58629;48.808;8.820;2024-01-11T07:17:16;98115.56;;;-7.81;100.00
70968;BME280;58629;48.808;8.820;2024-01-11T07:19:41;98114.75;;;-7.72;100.00
70968;BME280;58629;48.808;8.820;2024-01-11T07:22:06;98116.31;;;-7.71;98.93
70968;BME280;58629;48.808;8.820;2024-01-11T07:24:32;98114.97;;;-7.68;100.00
70968;BME280;58629;48.808;8.820;2024-01-11T07:27:04;98114.22;;;-7.69;99.16
70968;BME280;58629;48.808;8.820;2024-01-11T07:29:30;98108.28;;;-7.64;99.53
70968;BME280;58629;48.808;8.820;2024-01-11T07:31:55;98119.63;;;-7.65;98.99
70968;BME280;58629;48.808;8.820;2024-01-11T07:34:21;98117.81;;;-7.70;99.65
70968;BME280;58629;48.808;8.820;2024-01-11T07:36:46;98120.63;;;-7.66;99.63
70968;BME280;58629;48.808;8.820;2024-01-11T07:39:12;98117.56;;;-7.68;98.73
70968;BME280;58629;48.808;8.820;2024-01-11T07:41:37;98118.56;;;-7.64;100.00
70968;BME280;58629;48.808;8.820;2024-01-11T07:44:02;98122.16;;;-7.60;100.00
70968;BME280;58629;48.808;8.820;2024-01-11T07:46:28;98124.94;;;-7.52;100.00
70968;BME280;58629;48.808;8.820;2024-01-11T07:48:54;98127.25;;;-7.50;99.44
70968;BME280;58629;48.808;8.820;2024-01-11T07:51:19;98130.09;;;-7.52;100.00
70968;BME280;58629;48.808;8.820;2024-01-11T07:53:45;98130.91;;;-7.61;99.70
70968;BME280;58629;48.808;8.820;2024-01-11T07:56:10;98135.22;;;-7.52;100.00
70968;BME280;58629;48.808;8.820;2024-01-11T07:58:36;98141.38;;;-7.43;100.00
70968;BME280;58629;48.808;8.820;2024-01-11T08:01:03;98137.94;;;-7.28;100.00
70968;BME280;58629;48.808;8.820;2024-01-11T08:03:29;98148.28;;;-7.38;100.00
70968;BME280;58629;48.808;8.820;2024-01-11T08:05:55;98163.69;;;-7.33;100.00
70968;BME280;58629;48.808;8.820;2024-01-11T08:08:20;98167.56;;;-7.36;100.00
70968;BME280;58629;48.808;8.820;2024-01-11T08:10:47;98176.25;;;-7.27;100.00
70968;BME280;58629;48.808;8.820;2024-01-11T08:13:13;98184.75;;;-7.26;100.00
70968;BME280;58629;48.808;8.820;2024-01-11T08:15:39;98178.75;;;-7.12;100.00
70968;BME280;58629;48.808;8.820;2024-01-11T08:18:04;98168.63;;;-6.98;100.00
70968;BME280;58629;48.808;8.820;2024-01-11T08:20:30;98183.00;;;-6.92;100.00
70968;BME280;58629;48.808;8.820;2024-01-11T08:22:55;98196.66;;;-6.91;100.00
70968;BME280;58629;48.808;8.820;2024-01-11T08:25:21;98190.00;;;-6.97;100.00
70968;BME280;58629;48.808;8.820;2024-01-11T08:27:48;98191.72;;;-6.88;100.00
70968;BME280;58629;48.808;8.820;2024-01-11T08:30:13;98195.59;;;-6.85;100.00
70968;BME280;58629;48.808;8.820;2024-01-11T08:32:39;98191.19;;;-6.85;100.00
70968;BME280;58629;48.808;8.820;2024-01-11T08:35:05;98193.50;;;-6.83;100.00
70968;BME280;58629;48.808;8.820;2024-01-11T08:37:31;98201.25;;;-6.88;100.00
70968;BME280;58629;48.808;8.820;2024-01-11T08:39:57;98190.66;;;-6.82;100.00
70968;BME280;58629;48.808;8.820;2024-01-11T08:42:23;98202.03;;;-6.88;100.00
70968;BME280;58629;48.808;8.820;2024-01-11T08:44:48;98194.75;;;-6.81;100.00
70968;BME280;58629;48.808;8.820;2024-01-11T08:47:13;98195.19;;;-6.69;100.00
70968;BME280;58629;48.808;8.820;2024-01-11T08:49:39;98196.69;;;-6.63;100.00
70968;BME280;58629;48.808;8.820;2024-01-11T08:52:05;98200.00;;;-6.57;100.00
70968;BME280;58629;48.808;8.820;2024-01-11T08:54:31;98196.59;;;-6.48;100.00
70968;BME280;58629;48.808;8.820;2024-01-11T08:56:58;98197.50;;;-6.34;100.00
70968;BME280;58629;48.808;8.820;2024-01-11T08:59:23;98198.72;;;-6.26;100.00
70968;BME280;58629;48.808;8.820;2024-01-11T09:01:50;98194.81;;;-6.24;100.00
70968;BME280;58629;48.808;8.820;2024-01-11T09:04:15;98197.81;;;-6.11;100.00
70968;BME280;58629;48.808;8.820;2024-01-11T09:06:42;98187.47;;;-6.06;100.00
70968;BME280;58629;48.808;8.820;2024-01-11T09:09:08;98184.72;;;-5.91;100.00
70968;BME280;58629;48.808;8.820;2024-01-11T09:11:35;98184.78;;;-5.78;100.00
70968;BME280;58629;48.808;8.820;2024-01-11T09:14:01;98193.41;;;-5.64;100.00
70968;BME280;58629;48.808;8.820;2024-01-11T09:16:28;98195.56;;;-5.47;100.00
70968;BME280;58629;48.808;8.820;2024-01-11T09:18:53;98206.38;;;-5.27;100.00
70968;BME280;58629;48.808;8.820;2024-01-11T09:21:19;98197.75;;;-5.17;100.00
70968;BME280;58629;48.808;8.820;2024-01-11T09:23:44;98202.50;;;-5.05;100.00
70968;BME280;58629;48.808;8.820;2024-01-11T09:26:10;98187.22;;;-5.02;100.00
70968;BME280;58629;48.808;8.820;2024-01-11T09:28:35;98180.09;;;-4.91;100.00
70968;BME280;58629;48.808;8.820;2024-01-11T09:31:00;98178.91;;;-4.80;100.00
70968;BME280;58629;48.808;8.820;2024-01-11T09:33:27;98189.44;;;-4.77;100.00
70968;BME280;58629;48.808;8.820;2024-01-11T09:35:53;98203.53;;;-4.69;100.00
70968;BME280;58629;48.808;8.820;2024-01-11T09:38:19;98199.06;;;-4.64;100.00
70968;BME280;58629;48.808;8.820;2024-01-11T09:40:44;98197.22;;;-4.63;100.00
70968;BME280;58629;48.808;8.820;2024-01-11T09:43:10;98190.25;;;-4.63;100.00
70968;BME280;58629;48.808;8.820;2024-01-11T09:45:36;98197.56;;;-4.51;100.00
70968;BME280;58629;48.808;8.820;2024-01-11T09:48:04;98206.97;;;-4.42;100.00
70968;BME280;58629;48.808;8.820;2024-01-11T09:50:32;98215.44;;;-4.36;100.00
70968;BME280;58629;48.808;8.820;2024-01-11T09:52:58;98215.81;;;-4.29;100.00
70968;BME280;58629;48.808;8.820;2024-01-11T09:55:23;98211.56;;;-4.20;100.00
70968;BME280;58629;48.808;8.820;2024-01-11T09:57:52;98208.50;;;-4.08;100.00
70968;BME280;58629;48.808;8.820;2024-01-11T10:00:22;98210.34;;;-3.95;100.00
70968;BME280;58629;48.808;8.820;2024-01-11T10:02:48;98207.19;;;-3.92;100.00
70968;BME280;58629;48.808;8.820;2024-01-11T10:05:16;98205.19;;;-3.82;100.00
70968;BME280;58629;48.808;8.820;2024-01-11T10:07:42;98205.28;;;-3.73;100.00
70968;BME280;58629;48.808;8.820;2024-01-11T10:10:08;98198.97;;;-3.67;100.00
70968;BME280;58629;48.808;8.820;2024-01-11T10:12:37;98202.69;;;-3.60;100.00
70968;BME280;58629;48.808;8.820;2024-01-11T10:15:07;98207.56;;;-3.58;100.00
70968;BME280;58629;48.808;8.820;2024-01-11T10:17:41;98197.69;;;-3.56;100.00
70968;BME280;58629;48.808;8.820;2024-01-11T10:20:08;98190.34;;;-3.49;100.00
70968;BME280;58629;48.808;8.820;2024-01-11T10:22:36;98186.75;;;-3.39;100.00
70968;BME280;58629;48.808;8.820;2024-01-11T10:25:14;98186.38;;;-3.33;100.00
70968;BME280;58629;48.808;8.820;2024-01-11T10:27:41;98175.91;;;-3.28;100.00
70968;BME280;58629;48.808;8.820;2024-01-11T10:30:11;98173.41;;;-3.19;100.00
70968;BME280;58629;48.808;8.820;2024-01-11T10:32:38;98168.78;;;-3.22;100.00
70968;BME280;58629;48.808;8.820;2024-01-11T10:35:04;98171.03;;;-3.29;100.00
70968;BME280;58629;48.808;8.820;2024-01-11T10:37:31;98170.63;;;-3.23;100.00
70968;BME280;58629;48.808;8.820;2024-01-11T10:40:04;98172.16;;;-3.22;100.00
70968;BME280;58629;48.808;8.820;2024-01-11T10:42:35;98171.97;;;-3.25;100.00
70968;BME280;58629;48.808;8.820;2024-01-11T10:45:03;98171.56;;;-3.19;100.00
70968;BME280;58629;48.808;8.820;2024-01-11T10:47:33;98172.03;;;-3.17;100.00
70968;BME280;58629;48.808;8.820;2024-01-11T10:50:01;98180.97;;;-3.09;100.00
70968;BME280;58629;48.808;8.820;2024-01-11T10:52:36;98176.59;;;-3.00;100.00
70968;BME280;58629;48.808;8.820;2024-01-11T10:55:01;98174.78;;;-3.00;100.00
70968;BME280;58629;48.808;8.820;2024-01-11T10:57:27;98181.88;;;-2.92;100.00
70968;BME280;58629;48.808;8.820;2024-01-11T10:59:54;98187.56;;;-2.81;100.00
70968;BME280;58629;48.808;8.820;2024-01-11T11:02:21;98181.34;;;-2.80;100.00
70968;BME280;58629;48.808;8.820;2024-01-11T11:04:48;98189.59;;;-2.78;99.08
70968;BME280;58629;48.808;8.820;2024-01-11T11:07:16;98185.09;;;-2.86;99.68
70968;BME280;58629;48.808;8.820;2024-01-11T11:09:44;98182.22;;;-2.85;100.00
70968;BME280;58629;48.808;8.820;2024-01-11T11:12:10;98175.53;;;-2.86;99.27
70968;BME280;58629;48.808;8.820;2024-01-11T11:14:36;98177.28;;;-2.73;100.00
70968;BME280;58629;48.808;8.820;2024-01-11T11:17:03;98177.28;;;-2.73;99.13
70968;BME280;58629;48.808;8.820;2024-01-11T11:19:29;98181.28;;;-2.67;98.88
70968;BME280;58629;48.808;8.820;2024-01-11T11:21:55;98168.69;;;-2.59;99.02
70968;BME280;58629;48.808;8.820;2024-01-11T11:24:21;98170.28;;;-2.50;99.54
70968;BME280;58629;48.808;8.820;2024-01-11T11:26:46;98165.31;;;-2.38;98.59
70968;BME280;58629;48.808;8.820;2024-01-11T11:29:12;98165.25;;;-2.24;99.65
70968;BME280;58629;48.808;8.820;2024-01-11T11:31:45;98163.78;;;-2.08;99.41
70968;BME280;58629;48.808;8.820;2024-01-11T11:34:13;98162.47;;;-1.97;98.43
70968;BME280;58629;48.808;8.820;2024-01-11T11:36:45;98156.09;;;-1.83;97.09
70968;BME280;58629;48.808;8.820;2024-01-11T11:39:11;98164.06;;;-1.79;95.37
70968;BME280;58629;48.808;8.820;2024-01-11T11:41:36;98160.56;;;-1.66;94.88
70968;BME280;58629;48.808;8.820;2024-01-11T11:44:04;98162.91;;;-1.56;94.21
70968;BME280;58629;48.808;8.820;2024-01-11T11:46:31;98163.66;;;-1.55;92.37
70968;BME280;58629;48.808;8.820;2024-01-11T11:48:57;98152.84;;;-1.40;93.33
70968;BME280;58629;48.808;8.820;2024-01-11T11:51:23;98152.56;;;-1.30;92.78
70968;BME280;58629;48.808;8.820;2024-01-11T11:53:50;98148.75;;;-1.24;91.61
70968;BME280;58629;48.808;8.820;2024-01-11T11:56:17;98137.91;;;-1.18;91.44
70968;BME280;58629;48.808;8.820;2024-01-11T11:58:44;98137.47;;;-1.11;90.87
70968;BME280;58629;48.808;8.820;2024-01-11T12:01:10;98128.56;;;-1.10;89.78
70968;BME280;58629;48.808;8.820;2024-01-11T12:03:37;98125.97;;;-1.02;90.88
70968;BME280;58629;48.808;8.820;2024-01-11T12:06:04;98115.28;;;-0.92;91.23
70968;BME280;58629;48.808;8.820;2024-01-11T12:08:33;98124.13;;;-0.84;89.89
70968;BME280;58629;48.808;8.820;2024-01-11T12:10:59;98121.22;;;-0.74;89.38
70968;BME280;58629;48.808;8.820;2024-01-11T12:13:25;98113.25;;;-0.69;89.25
70968;BME280;58629;48.808;8.820;2024-01-11T12:15:51;98091.66;;;-0.61;88.39
70968;BME280;58629;48.808;8.820;2024-01-11T12:18:16;98094.56;;;-0.54;87.81
70968;BME280;58629;48.808;8.820;2024-01-11T12:20:41;98090.16;;;-0.62;86.11
70968;BME280;58629;48.808;8.820;2024-01-11T12:23:07;98096.97;;;-0.49;87.14
70968;BME280;58629;48.808;8.820;2024-01-11T12:25:33;98105.88;;;-0.50;86.14
70968;BME280;58629;48.808;8.820;2024-01-11T12:27:58;98093.47;;;-0.44;84.75
70968;BME280;58629;48.808;8.820;2024-01-11T12:30:27;98093.59;;;-0.41;84.58
70968;BME280;58629;48.808;8.820;2024-01-11T12:32:53;98096.50;;;-0.34;85.14
70968;BME280;58629;48.808;8.820;2024-01-11T12:35:20;98104.72;;;-0.23;84.75
70968;BME280;58629;48.808;8.820;2024-01-11T12:38:03;98091.03;;;-0.12;84.87
70968;BME280;58629;48.808;8.820;2024-01-11T12:40:38;98090.22;;;-0.04;84.43
70968;BME280;58629;48.808;8.820;2024-01-11T12:43:04;98089.75;;;0.03;83.51
70968;BME280;58629;48.808;8.820;2024-01-11T12:45:30;98093.72;;;0.09;83.14
70968;BME280;58629;48.808;8.820;2024-01-11T12:47:59;98096.56;;;0.16;83.51
70968;BME280;58629;48.808;8.820;2024-01-11T12:50:26;98098.44;;;0.16;81.55